Time;durP1;ratioP1;P1;durP2;ratioP2;P2;SDS_P1;SDS_P2;PMS_P1;PMS_P2;Temp;Humidity;BMP_temperature;BMP_pressure;BME280_temperature;BME280_humidity;BME280_pressure;Samples;Min_cycle;Max_cycle;Signal;HPM_P1;HPM_P2
2023/09/09 00:01:45;;;;;;;5.50;5.10;;;;;;;;;;5098636;28;20204;-63
2023/09/09 00:04:15;;;;;;;5.70;5.30;;;;;;;;;;5098970;28;20204;-63
2023/09/09 00:06:43;;;;;;;5.78;5.38;;;;;;;;;;5099077;28;20268;-63
2023/09/09 00:09:10;;;;;;;6.13;5.70;;;;;;;;;;5099173;28;20543;-63
2023/09/09 00:11:38;;;;;;;6.18;5.75;;;;;;;;;;5099366;28;20485;-63
2023/09/09 00:14:06;;;;;;;6.65;6.00;;;;;;;;;;5098771;28;20254;-63
2023/09/09 00:16:34;;;;;;;6.20;5.70;;;;;;;;;;5098737;28;20269;-63
2023/09/09 00:19:02;;;;;;;6.28;5.72;;;;;;;;;;5099107;28;20203;-63
2023/09/09 00:21:31;;;;;;;6.18;5.68;;;;;;;;;;5098471;28;20211;-63
2023/09/09 00:23:59;;;;;;;5.78;5.28;;;;;;;;;;5098986;28;20203;-63
2023/09/09 00:26:28;;;;;;;5.45;5.05;;;;;;;;;;5098676;28;20203;-63
2023/09/09 00:28:56;;;;;;;5.88;5.47;;;;;;;;;;5098910;28;20204;-63
2023/09/09 00:31:24;;;;;;;6.70;6.15;;;;;;;;;;5099030;28;20204;-63
2023/09/09 00:33:51;;;;;;;6.10;5.50;;;;;;;;;;5098649;28;20209;-63
2023/09/09 00:36:19;;;;;;;5.90;5.40;;;;;;;;;;5098701;28;20223;-63
2023/09/09 00:38:48;;;;;;;6.05;5.55;;;;;;;;;;5098584;28;20204;-63
2023/09/09 00:41:17;;;;;;;5.60;5.10;;;;;;;;;;5098479;28;20594;-63
2023/09/09 00:43:45;;;;;;;5.30;4.90;;;;;;;;;;5098460;28;20226;-63
2023/09/09 00:46:13;;;;;;;5.75;5.25;;;;;;;;;;5098166;28;20203;-63
2023/09/09 00:48:41;;;;;;;5.70;5.20;;;;;;;;;;5098523;28;20648;-63
2023/09/09 00:51:11;;;;;;;5.63;5.07;;;;;;;;;;5098165;28;20595;-63
2023/09/09 00:53:39;;;;;;;5.80;5.30;;;;;;;;;;5098223;28;20723;-64
2023/09/09 00:56:08;;;;;;;5.95;5.45;;;;;;;;;;5098165;28;20307;-63
2023/09/09 00:58:35;;;;;;;5.57;5.18;;;;;;;;;;5098330;28;20247;-63
2023/09/09 01:01:04;;;;;;;5.78;5.28;;;;;;;;;;5098428;28;20214;-63
2023/09/09 01:03:32;;;;;;;5.65;5.15;;;;;;;;;;5098406;28;20547;-63
2023/09/09 01:05:59;;;;;;;5.85;5.35;;;;;;;;;;5097838;28;20318;-63
2023/09/09 01:08:27;;;;;;;6.18;5.68;;;;;;;;;;5098537;28;20239;-63
2023/09/09 01:10:55;;;;;;;6.00;5.50;;;;;;;;;;5097606;28;20329;-63
2023/09/09 01:13:25;;;;;;;6.43;5.03;;;;;;;;;;5098164;28;20563;-63
2023/09/09 01:15:53;;;;;;;5.72;5.32;;;;;;;;;;5097975;28;20223;-63
2023/09/09 01:18:20;;;;;;;5.88;5.38;;;;;;;;;;5097394;28;20559;-63
2023/09/09 01:21:01;;;;;;;5.55;5.05;;;;;;;;;;5097971;28;20215;-63
2023/09/09 01:23:30;;;;;;;6.18;5.57;;;;;;;;;;5097229;28;20203;-63
2023/09/09 01:25:58;;;;;;;5.70;5.22;;;;;;;;;;5097878;28;20507;-62
2023/09/09 01:28:25;;;;;;;5.65;5.10;;;;;;;;;;5097783;28;20265;-62
2023/09/09 01:30:53;;;;;;;5.63;5.22;;;;;;;;;;5097707;28;20529;-63
2023/09/09 01:33:21;;;;;;;5.47;5.07;;;;;;;;;;5097501;28;20207;-63
2023/09/09 01:35:48;;;;;;;5.65;5.15;;;;;;;;;;5097535;28;20224;-63
2023/09/09 01:38:16;;;;;;;5.35;4.95;;;;;;;;;;5097661;28;20204;-63
2023/09/09 01:40:45;;;;;;;5.75;5.35;;;;;;;;;;5098063;28;20203;-63
2023/09/09 01:43:13;;;;;;;5.47;5.07;;;;;;;;;;5097593;28;20203;-63
2023/09/09 01:45:40;;;;;;;5.90;5.38;;;;;;;;;;5097869;28;20206;-63
2023/09/09 01:48:08;;;;;;;5.45;5.05;;;;;;;;;;5097409;28;20203;-63
2023/09/09 01:50:36;;;;;;;5.60;5.10;;;;;;;;;;5097772;28;20203;-63
2023/09/09 01:53:04;;;;;;;5.90;5.40;;;;;;;;;;5097582;28;20231;-63
2023/09/09 01:55:32;;;;;;;5.72;5.22;;;;;;;;;;5097206;28;20250;-63
2023/09/09 01:58:01;;;;;;;6.43;5.53;;;;;;;;;;5096815;28;20250;-63
2023/09/09 02:00:29;;;;;;;5.65;5.15;;;;;;;;;;5097110;28;20482;-63
2023/09/09 02:02:57;;;;;;;5.60;5.10;;;;;;;;;;5096769;28;20215;-63
2023/09/09 02:05:24;;;;;;;5.20;4.80;;;;;;;;;;5096082;28;20322;-63
2023/09/09 02:07:52;;;;;;;5.13;4.78;;;;;;;;;;5096662;28;20568;-63
2023/09/09 02:10:20;;;;;;;5.43;4.93;;;;;;;;;;5096400;28;20196;-63
2023/09/09 02:12:47;;;;;;;5.20;4.80;;;;;;;;;;5096344;28;20218;-63
2023/09/09 02:15:16;;;;;;;5.18;4.78;;;;;;;;;;5096298;28;20228;-63
2023/09/09 02:17:44;;;;;;;5.15;4.65;;;;;;;;;;5096632;28;20200;-63
2023/09/09 02:20:12;;;;;;;5.53;5.03;;;;;;;;;;5096866;28;20299;-63
2023/09/09 02:22:40;;;;;;;5.63;5.00;;;;;;;;;;5097205;28;20243;-63
2023/09/09 02:25:08;;;;;;;4.75;4.35;;;;;;;;;;5099917;28;20265;-63
2023/09/09 02:27:36;;;;;;;5.20;4.68;;;;;;;;;;5100218;28;20195;-63
2023/09/09 02:30:04;;;;;;;5.32;4.93;;;;;;;;;;5100178;28;20203;-63
2023/09/09 02:32:33;;;;;;;5.22;4.82;;;;;;;;;;5100310;28;20330;-63
2023/09/09 02:35:01;;;;;;;5.22;4.82;;;;;;;;;;5099556;28;20642;-63
2023/09/09 02:37:29;;;;;;;5.80;5.13;;;;;;;;;;5099782;28;20233;-63
2023/09/09 02:39:56;;;;;;;5.63;5.22;;;;;;;;;;5099909;28;20204;-63
2023/09/09 02:42:25;;;;;;;5.50;4.93;;;;;;;;;;5100027;28;20199;-63
2023/09/09 02:44:52;;;;;;;5.00;4.60;;;;;;;;;;5099954;28;20207;-63
2023/09/09 02:47:20;;;;;;;5.22;4.82;;;;;;;;;;5099436;28;20235;-63
2023/09/09 02:49:51;;;;;;;5.22;4.82;;;;;;;;;;5099906;28;20203;-63
2023/09/09 02:52:18;;;;;;;5.40;5.00;;;;;;;;;;5099621;28;20235;-63
2023/09/09 02:54:46;;;;;;;4.88;4.47;;;;;;;;;;5099705;28;20219;-63
2023/09/09 02:57:14;;;;;;;5.20;4.80;;;;;;;;;;5050759;28;1387693;-63
2023/09/09 02:59:42;;;;;;;5.75;5.25;;;;;;;;;;5100845;28;20207;-63
2023/09/09 03:02:09;;;;;;;5.50;5.10;;;;;;;;;;5101123;28;20203;-63
2023/09/09 03:04:37;;;;;;;5.28;4.88;;;;;;;;;;5100953;28;20212;-63
2023/09/09 03:07:06;;;;;;;5.25;4.85;;;;;;;;;;5100575;28;20203;-63
2023/09/09 03:09:35;;;;;;;5.07;4.68;;;;;;;;;;5101103;28;20207;-63
2023/09/09 03:12:03;;;;;;;5.43;4.93;;;;;;;;;;5100334;28;20308;-63
2023/09/09 03:14:31;;;;;;;5.80;5.30;;;;;;;;;;5100419;28;20478;-63
2023/09/09 03:16:59;;;;;;;5.38;4.88;;;;;;;;;;5100715;28;20548;-63
2023/09/09 03:19:27;;;;;;;5.40;5.00;;;;;;;;;;5100482;28;20260;-63
2023/09/09 03:21:55;;;;;;;5.78;5.28;;;;;;;;;;5100739;28;20227;-63
2023/09/09 03:24:24;;;;;;;5.22;4.82;;;;;;;;;;5099935;28;20286;-63
2023/09/09 03:26:51;;;;;;;5.15;4.78;;;;;;;;;;5100018;28;20219;-63
2023/09/09 03:29:19;;;;;;;5.40;5.00;;;;;;;;;;5100339;28;20290;-63
2023/09/09 03:31:47;;;;;;;5.35;4.85;;;;;;;;;;5100394;28;20207;-63
2023/09/09 03:34:14;;;;;;;5.90;5.30;;;;;;;;;;5099870;28;20203;-63
2023/09/09 03:36:42;;;;;;;5.47;5.00;;;;;;;;;;5099844;28;20324;-63
2023/09/09 03:39:10;;;;;;;5.35;4.95;;;;;;;;;;5100181;28;20200;-63
2023/09/09 03:41:40;;;;;;;5.25;4.85;;;;;;;;;;5100101;28;20215;-62
2023/09/09 03:44:08;;;;;;;5.78;5.32;;;;;;;;;;5100381;28;20470;-62
2023/09/09 03:46:35;;;;;;;5.47;4.85;;;;;;;;;;5100000;28;20199;-62
2023/09/09 03:49:03;;;;;;;5.25;4.85;;;;;;;;;;5099486;28;20253;-62
2023/09/09 03:51:30;;;;;;;5.43;4.93;;;;;;;;;;5099632;28;20207;-62
2023/09/09 03:53:58;;;;;;;5.18;4.68;;;;;;;;;;5099887;28;20204;-62
2023/09/09 03:56:26;;;;;;;4.90;4.50;;;;;;;;;;5099529;28;20219;-62
2023/09/09 03:58:55;;;;;;;5.18;4.75;;;;;;;;;;5099904;28;20510;-62
2023/09/09 04:01:23;;;;;;;6.32;4.97;;;;;;;;;;5099312;28;20318;-62
2023/09/09 04:03:50;;;;;;;5.30;4.90;;;;;;;;;;5099326;28;20235;-62
2023/09/09 04:06:19;;;;;;;5.45;5.05;;;;;;;;;;5099595;28;20199;-62
2023/09/09 04:08:47;;;;;;;5.30;4.80;;;;;;;;;;5099764;28;20210;-62
2023/09/09 04:11:14;;;;;;;5.28;4.78;;;;;;;;;;5099362;28;20214;-62
2023/09/09 04:13:42;;;;;;;5.45;5.05;;;;;;;;;;5099534;28;20251;-62
2023/09/09 04:16:11;;;;;;;5.07;4.78;;;;;;;;;;5099026;28;20281;-62
2023/09/09 04:18:38;;;;;;;5.13;4.72;;;;;;;;;;5099461;28;20203;-62
2023/09/09 04:21:06;;;;;;;5.18;4.78;;;;;;;;;;5099276;28;20298;-62
2023/09/09 04:23:33;;;;;;;5.07;4.68;;;;;;;;;;5098991;28;20204;-62
2023/09/09 04:26:01;;;;;;;5.25;4.85;;;;;;;;;;5098323;28;20207;-62
2023/09/09 04:28:28;;;;;;;5.20;4.80;;;;;;;;;;5098982;28;20203;-62
2023/09/09 04:30:56;;;;;;;5.35;4.90;;;;;;;;;;5098816;28;20297;-62
2023/09/09 04:33:24;;;;;;;5.40;5.00;;;;;;;;;;5098724;28;20302;-62
2023/09/09 04:35:52;;;;;;;5.10;4.70;;;;;;;;;;5098491;28;20223;-62
2023/09/09 04:38:22;;;;;;;5.38;4.97;;;;;;;;;;5098671;28;20203;-62
2023/09/09 04:40:50;;;;;;;4.90;4.47;;;;;;;;;;5099126;28;20490;-62
2023/09/09 04:43:18;;;;;;;5.38;4.97;;;;;;;;;;5098883;28;20210;-62
2023/09/09 04:45:45;;;;;;;5.05;4.65;;;;;;;;;;5097826;28;20200;-63
2023/09/09 04:48:12;;;;;;;4.95;4.55;;;;;;;;;;5098767;28;20207;-63
2023/09/09 04:50:42;;;;;;;4.88;4.47;;;;;;;;;;5098458;28;20349;-63
2023/09/09 04:53:09;;;;;;;5.30;4.80;;;;;;;;;;5098588;28;20214;-63
2023/09/09 04:55:36;;;;;;;4.63;4.30;;;;;;;;;;5098328;28;20255;-63
2023/09/09 04:58:04;;;;;;;5.15;4.65;;;;;;;;;;5098409;28;20337;-63
2023/09/09 05:00:31;;;;;;;5.03;4.63;;;;;;;;;;5098660;28;20341;-63
2023/09/09 05:02:59;;;;;;;4.78;4.40;;;;;;;;;;5098574;28;20290;-63
2023/09/09 05:05:27;;;;;;;5.28;4.88;;;;;;;;;;5098071;28;20287;-63
2023/09/09 05:07:55;;;;;;;5.05;4.55;;;;;;;;;;5098182;28;20203;-63
2023/09/09 05:10:26;;;;;;;4.78;4.47;;;;;;;;;;5098254;28;20211;-63
2023/09/09 05:12:54;;;;;;;4.95;4.55;;;;;;;;;;5098487;28;20264;-63
2023/09/09 05:15:21;;;;;;;4.75;4.45;;;;;;;;;;5098209;28;20514;-63
2023/09/09 05:17:49;;;;;;;5.82;5.00;;;;;;;;;;5097583;28;20288;-63
2023/09/09 05:20:17;;;;;;;5.15;4.70;;;;;;;;;;5098036;28;20203;-63
2023/09/09 05:22:44;;;;;;;5.10;4.70;;;;;;;;;;5098161;28;20298;-63
2023/09/09 05:25:13;;;;;;;5.22;4.82;;;;;;;;;;5097711;28;20303;-63
2023/09/09 05:27:41;;;;;;;4.90;4.50;;;;;;;;;;5097740;28;20204;-63
2023/09/09 05:30:10;;;;;;;4.95;4.55;;;;;;;;;;5097860;28;20203;-63
2023/09/09 05:32:38;;;;;;;5.25;4.82;;;;;;;;;;5097490;28;20203;-63
2023/09/09 05:35:06;;;;;;;5.28;4.88;;;;;;;;;;5097539;28;20235;-63
2023/09/09 05:37:33;;;;;;;5.13;4.72;;;;;;;;;;5097185;28;20328;-63
2023/09/09 05:40:01;;;;;;;5.15;4.65;;;;;;;;;;5097811;28;20576;-63
2023/09/09 05:42:30;;;;;;;5.32;4.88;;;;;;;;;;5096879;28;20208;-63
2023/09/09 05:44:57;;;;;;;5.00;4.60;;;;;;;;;;5097280;28;20231;-63
2023/09/09 05:47:25;;;;;;;5.45;5.03;;;;;;;;;;5097168;28;20239;-63
2023/09/09 05:49:53;;;;;;;5.18;4.75;;;;;;;;;;5097244;28;20204;-63
2023/09/09 05:52:20;;;;;;;5.45;5.05;;;;;;;;;;5097262;28;20204;-63
2023/09/09 05:54:48;;;;;;;5.15;4.75;;;;;;;;;;5097793;28;20545;-62
2023/09/09 05:57:15;;;;;;;5.32;4.93;;;;;;;;;;5097106;28;20289;-62
2023/09/09 05:59:44;;;;;;;5.57;5.10;;;;;;;;;;5097904;28;20502;-62
2023/09/09 06:02:11;;;;;;;5.95;5.35;;;;;;;;;;5097618;28;20212;-62
2023/09/09 06:04:39;;;;;;;5.10;4.70;;;;;;;;;;5096624;28;20233;-63
2023/09/09 06:07:06;;;;;;;5.60;5.20;;;;;;;;;;5096681;28;20200;-63
2023/09/09 06:09:34;;;;;;;5.60;5.10;;;;;;;;;;5096966;28;20303;-63
2023/09/09 06:12:02;;;;;;;6.25;4.88;;;;;;;;;;5096563;28;20203;-63
2023/09/09 06:14:30;;;;;;;5.90;5.40;;;;;;;;;;5096986;28;20250;-63
2023/09/09 06:16:59;;;;;;;5.55;5.15;;;;;;;;;;5096808;28;20262;-63
2023/09/09 06:19:26;;;;;;;5.38;4.97;;;;;;;;;;5096761;28;20204;-63
2023/09/09 06:21:54;;;;;;;5.75;5.22;;;;;;;;;;5097004;28;20229;-63
2023/09/09 06:24:21;;;;;;;5.70;5.15;;;;;;;;;;5096664;28;20250;-63
2023/09/09 06:26:48;;;;;;;6.32;5.25;;;;;;;;;;5096910;28;20289;-63
2023/09/09 06:29:16;;;;;;;5.60;5.20;;;;;;;;;;5097019;28;20302;-63
2023/09/09 06:31:44;;;;;;;5.53;5.03;;;;;;;;;;5096581;28;20264;-63
2023/09/09 06:34:12;;;;;;;5.78;5.28;;;;;;;;;;5096466;28;20211;-63
2023/09/09 06:36:40;;;;;;;6.15;5.65;;;;;;;;;;5096202;28;20310;-63
2023/09/09 06:39:07;;;;;;;5.93;5.43;;;;;;;;;;5096283;28;20207;-63
2023/09/09 06:41:35;;;;;;;6.22;5.78;;;;;;;;;;5096275;28;20277;-63
2023/09/09 06:44:03;;;;;;;6.40;5.90;;;;;;;;;;5096414;28;20204;-63
2023/09/09 06:46:30;;;;;;;6.38;5.88;;;;;;;;;;5096360;28;20557;-63
2023/09/09 06:48:58;;;;;;;6.15;5.55;;;;;;;;;;5096011;28;20247;-63
2023/09/09 06:51:27;;;;;;;6.55;6.05;;;;;;;;;;5096012;28;20303;-63
2023/09/09 06:53:55;;;;;;;6.35;5.75;;;;;;;;;;5096058;28;20204;-63
2023/09/09 06:56:22;;;;;;;6.32;5.70;;;;;;;;;;5095417;28;20694;-63
2023/09/09 06:58:50;;;;;;;6.40;5.90;;;;;;;;;;5095645;28;20342;-63
2023/09/09 07:01:17;;;;;;;6.53;5.90;;;;;;;;;;5095972;28;20290;-63
2023/09/09 07:03:45;;;;;;;6.47;5.88;;;;;;;;;;5096077;28;20295;-63
2023/09/09 07:06:13;;;;;;;6.55;6.05;;;;;;;;;;5095867;28;20260;-63
2023/09/09 07:08:43;;;;;;;8.70;7.90;;;;;;;;;;5096390;28;20555;-63
2023/09/09 07:11:11;;;;;;;7.72;7.07;;;;;;;;;;5099594;28;20196;-63
2023/09/09 07:13:38;;;;;;;7.05;6.40;;;;;;;;;;5099619;28;20233;-63
2023/09/09 07:16:06;;;;;;;7.05;6.55;;;;;;;;;;5099503;28;20239;-63
2023/09/09 07:18:33;;;;;;;7.88;7.15;;;;;;;;;;5099443;28;20656;-63
2023/09/09 07:21:01;;;;;;;7.95;6.50;;;;;;;;;;5099270;28;20239;-63
2023/09/09 07:23:28;;;;;;;6.90;6.40;;;;;;;;;;5099345;28;20294;-63
2023/09/09 07:25:57;;;;;;;6.72;6.22;;;;;;;;;;5099053;28;20280;-63
2023/09/09 07:28:25;;;;;;;6.50;6.00;;;;;;;;;;5099073;28;20203;-63
2023/09/09 07:30:52;;;;;;;6.47;5.95;;;;;;;;;;5099305;28;20328;-63
2023/09/09 07:33:20;;;;;;;7.05;6.38;;;;;;;;;;5079250;28;20282;-63
2023/09/09 07:35:52;;;;;;;6.68;6.07;;;;;;;;;;5058524;28;20248;-63
2023/09/09 07:38:19;;;;;;;6.03;5.60;;;;;;;;;;5058946;28;20201;-63
2023/09/09 07:40:47;;;;;;;6.25;5.75;;;;;;;;;;5058171;28;20287;-63
2023/09/09 07:43:18;;;;;;;6.70;6.20;;;;;;;;;;5058332;28;20631;-63
2023/09/09 07:45:48;;;;;;;5.90;5.47;;;;;;;;;;5058301;28;20280;-64
2023/09/09 07:48:16;;;;;;;5.72;5.22;;;;;;;;;;5058139;28;20201;-63
2023/09/09 07:50:50;;;;;;;5.72;5.30;;;;;;;;;;5058060;28;20894;-63
2023/09/09 07:53:18;;;;;;;5.63;5.10;;;;;;;;;;5058562;28;20287;-63
2023/09/09 07:55:45;;;;;;;6.00;5.50;;;;;;;;;;5058471;28;20299;-63
2023/09/09 07:58:13;;;;;;;5.97;5.47;;;;;;;;;;5057760;28;20228;-63
2023/09/09 08:00:42;;;;;;;5.90;5.40;;;;;;;;;;5058352;28;20517;-63
2023/09/09 08:03:10;;;;;;;5.28;4.78;;;;;;;;;;5058160;28;20204;-63
2023/09/09 08:05:38;;;;;;;5.88;5.35;;;;;;;;;;5056694;28;20200;-63
2023/09/09 08:08:06;;;;;;;5.78;5.35;;;;;;;;;;5056741;28;20205;-63
2023/09/09 08:10:34;;;;;;;6.15;5.55;;;;;;;;;;5058108;28;20291;-63
2023/09/09 08:13:02;;;;;;;5.43;5.03;;;;;;;;;;5057239;28;20201;-63
2023/09/09 08:15:29;;;;;;;5.43;5.03;;;;;;;;;;5056774;28;20596;-63
2023/09/09 08:17:59;;;;;;;5.63;5.15;;;;;;;;;;5056536;28;20268;-63
2023/09/09 08:20:26;;;;;;;6.15;5.65;;;;;;;;;;5055682;28;20215;-63
2023/09/09 08:22:53;;;;;;;6.63;6.13;;;;;;;;;;5057497;28;20244;-63
2023/09/09 08:25:21;;;;;;;6.30;5.70;;;;;;;;;;5057288;28;20284;-63
2023/09/09 08:27:48;;;;;;;6.60;6.10;;;;;;;;;;5057736;28;20296;-63
2023/09/09 08:30:17;;;;;;;6.20;5.75;;;;;;;;;;5067291;28;20235;-63
2023/09/09 08:32:44;;;;;;;6.03;5.53;;;;;;;;;;5077584;28;20215;-63
2023/09/09 08:35:13;;;;;;;6.72;6.22;;;;;;;;;;5077345;28;20301;-63
2023/09/09 08:37:40;;;;;;;6.15;5.65;;;;;;;;;;5077221;28;20293;-63
2023/09/09 08:40:09;;;;;;;6.50;5.90;;;;;;;;;;5076976;28;20247;-63
2023/09/09 08:42:47;;;;;;;6.28;5.75;;;;;;;;;;5076850;28;20200;-63
2023/09/09 08:45:20;;;;;;;6.40;5.90;;;;;;;;;;5077329;28;20294;-63
2023/09/09 08:47:49;;;;;;;6.53;5.93;;;;;;;;;;5076830;28;20206;-63
2023/09/09 08:50:19;;;;;;;6.25;5.75;;;;;;;;;;5076118;28;20664;-63
2023/09/09 08:52:49;;;;;;;6.72;6.22;;;;;;;;;;5076504;28;20304;-63
2023/09/09 08:55:16;;;;;;;6.55;6.05;;;;;;;;;;5076106;28;20231;-63
2023/09/09 08:57:44;;;;;;;6.35;5.75;;;;;;;;;;5084127;28;20326;-63
2023/09/09 09:00:13;;;;;;;6.43;5.90;;;;;;;;;;5096348;28;20279;-63
2023/09/09 09:02:41;;;;;;;6.97;6.38;;;;;;;;;;5095521;28;20286;-63
2023/09/09 09:05:09;;;;;;;6.55;6.05;;;;;;;;;;5096243;28;20268;-62
2023/09/09 09:07:38;;;;;;;6.53;5.93;;;;;;;;;;5096056;28;20211;-62
2023/09/09 09:10:06;;;;;;;6.57;6.07;;;;;;;;;;5096437;28;20204;-62
2023/09/09 09:12:36;;;;;;;6.72;6.03;;;;;;;;;;5096221;28;20213;-62
2023/09/09 09:15:05;;;;;;;7.38;6.70;;;;;;;;;;5095567;28;20292;-62
2023/09/09 09:17:37;;;;;;;6.70;6.10;;;;;;;;;;5095703;28;20227;-62
2023/09/09 09:20:07;;;;;;;6.93;6.32;;;;;;;;;;5095193;28;20251;-62
2023/09/09 09:22:37;;;;;;;6.50;6.00;;;;;;;;;;5089936;28;20212;-63
2023/09/09 09:25:10;;;;;;;7.03;6.30;;;;;;;;;;5055369;28;20617;-63
2023/09/09 09:27:41;;;;;;;6.82;6.22;;;;;;;;;;5055537;28;20215;-63
2023/09/09 09:30:10;;;;;;;7.20;6.60;;;;;;;;;;5055651;28;20208;-63
2023/09/09 09:32:40;;;;;;;7.05;6.28;;;;;;;;;;5055760;28;20213;-63
2023/09/09 09:35:08;;;;;;;7.82;7.13;;;;;;;;;;5055714;28;20302;-63
2023/09/09 09:37:36;;;;;;;7.10;6.47;;;;;;;;;;5056170;28;20251;-63
2023/09/09 09:40:04;;;;;;;6.93;6.28;;;;;;;;;;5055751;28;20220;-63
2023/09/09 09:42:35;;;;;;;7.63;6.88;;;;;;;;;;5055451;28;20496;-63
2023/09/09 09:45:09;;;;;;;8.15;7.40;;;;;;;;;;5055168;28;20208;-63
2023/09/09 09:47:43;;;;;;;6.88;6.38;;;;;;;;;;5055321;28;20300;-63
2023/09/09 09:50:18;;;;;;;7.50;6.80;;;;;;;;;;5055582;28;20280;-63
2023/09/09 09:52:48;;;;;;;7.15;6.47;;;;;;;;;;5055892;28;20200;-63
2023/09/09 09:55:19;;;;;;;7.57;6.88;;;;;;;;;;5055020;28;20212;-63
2023/09/09 09:57:48;;;;;;;7.38;6.78;;;;;;;;;;5055622;28;20241;-63
2023/09/09 10:00:17;;;;;;;7.25;6.65;;;;;;;;;;5056021;28;20704;-63
2023/09/09 10:02:46;;;;;;;7.53;6.93;;;;;;;;;;5055134;28;20573;-63
2023/09/09 10:05:15;;;;;;;7.00;6.50;;;;;;;;;;5055520;28;20303;-63
2023/09/09 10:07:44;;;;;;;7.13;6.43;;;;;;;;;;5056043;28;20300;-63
2023/09/09 10:10:13;;;;;;;7.50;6.80;;;;;;;;;;5054499;28;20212;-63
2023/09/09 10:12:44;;;;;;;7.60;6.82;;;;;;;;;;5055209;28;20213;-63
2023/09/09 10:15:13;;;;;;;7.10;6.53;;;;;;;;;;5055468;28;20205;-64
2023/09/09 10:17:41;;;;;;;7.28;6.68;;;;;;;;;;5054815;28;20325;-63
2023/09/09 10:20:11;;;;;;;6.88;6.35;;;;;;;;;;5054436;28;20300;-63
2023/09/09 10:22:38;;;;;;;6.85;6.32;;;;;;;;;;5054819;28;20213;-63
2023/09/09 10:25:06;;;;;;;7.07;6.47;;;;;;;;;;5054786;28;20209;-63
2023/09/09 10:27:35;;;;;;;7.13;6.43;;;;;;;;;;5055242;28;20201;-63
2023/09/09 10:30:03;;;;;;;7.32;6.63;;;;;;;;;;5055136;28;20207;-63
2023/09/09 10:32:32;;;;;;;6.88;6.28;;;;;;;;;;5054782;28;20205;-63
2023/09/09 10:35:01;;;;;;;6.72;6.10;;;;;;;;;;5055203;28;20320;-63
2023/09/09 10:37:29;;;;;;;7.18;6.57;;;;;;;;;;5055235;28;20276;-62
2023/09/09 10:39:57;;;;;;;6.85;6.25;;;;;;;;;;5055053;28;20212;-62
2023/09/09 10:42:24;;;;;;;6.72;6.18;;;;;;;;;;5054723;28;20307;-62
2023/09/09 10:44:55;;;;;;;6.85;6.25;;;;;;;;;;5057702;28;20296;-62
2023/09/09 10:47:22;;;;;;;7.30;6.40;;;;;;;;;;5058959;28;20299;-63
2023/09/09 10:50:04;;;;;;;6.80;6.22;;;;;;;;;;5057612;28;20201;-63
2023/09/09 10:52:32;;;;;;;6.95;6.35;;;;;;;;;;5057830;28;20596;-63
2023/09/09 10:55:12;;;;;;;6.72;6.22;;;;;;;;;;5058194;28;20283;-63
2023/09/09 10:57:39;;;;;;;6.72;6.13;;;;;;;;;;5057692;28;20331;-63
2023/09/09 11:00:09;;;;;;;7.18;6.47;;;;;;;;;;5057548;28;20201;-63
2023/09/09 11:02:45;;;;;;;6.90;6.30;;;;;;;;;;5057360;28;20216;-63
2023/09/09 11:05:14;;;;;;;6.88;6.38;;;;;;;;;;5057371;28;20211;-63
2023/09/09 11:07:42;;;;;;;6.45;5.95;;;;;;;;;;5058141;28;20263;-63
2023/09/09 11:10:10;;;;;;;7.50;6.78;;;;;;;;;;5057747;28;20209;-63
2023/09/09 11:12:38;;;;;;;7.28;6.68;;;;;;;;;;5057232;28;20205;-63
2023/09/09 11:15:09;;;;;;;7.13;6.53;;;;;;;;;;5057980;28;20284;-63
2023/09/09 11:17:37;;;;;;;6.80;6.30;;;;;;;;;;5056812;28;20260;-63
2023/09/09 11:20:04;;;;;;;7.13;6.57;;;;;;;;;;5056976;28;20659;-63
2023/09/09 11:22:34;;;;;;;6.70;6.20;;;;;;;;;;5057489;28;20284;-63
2023/09/09 11:25:03;;;;;;;6.47;5.97;;;;;;;;;;5056671;28;20251;-63
2023/09/09 11:27:30;;;;;;;7.10;6.50;;;;;;;;;;5057775;28;20262;-63
2023/09/09 11:29:58;;;;;;;6.78;6.28;;;;;;;;;;5057836;28;20209;-63
2023/09/09 11:32:26;;;;;;;6.55;6.05;;;;;;;;;;5056543;28;20237;-63
2023/09/09 11:34:54;;;;;;;6.28;5.78;;;;;;;;;;5057070;28;20205;-63
2023/09/09 11:37:21;;;;;;;6.40;5.80;;;;;;;;;;5058072;28;20205;-63
2023/09/09 11:39:52;;;;;;;7.07;6.40;;;;;;;;;;5058332;28;20215;-63
2023/09/09 11:42:20;;;;;;;6.47;5.97;;;;;;;;;;5057392;28;20212;-63
2023/09/09 11:44:48;;;;;;;6.85;6.25;;;;;;;;;;5056695;28;20209;-63
2023/09/09 11:47:16;;;;;;;7.15;6.45;;;;;;;;;;5056618;28;20300;-63
2023/09/09 11:49:44;;;;;;;6.93;6.43;;;;;;;;;;5057176;28;20197;-63
2023/09/09 11:52:12;;;;;;;6.68;6.10;;;;;;;;;;5056773;28;20201;-63
2023/09/09 11:54:39;;;;;;;6.78;6.13;;;;;;;;;;5056826;28;20232;-63
2023/09/09 11:57:09;;;;;;;6.97;6.38;;;;;;;;;;5056680;28;20334;-63
2023/09/09 11:59:46;;;;;;;6.57;6.07;;;;;;;;;;5056598;28;20229;-63
2023/09/09 12:02:20;;;;;;;6.80;6.20;;;;;;;;;;5057497;28;20230;-63
2023/09/09 12:04:54;;;;;;;6.60;6.00;;;;;;;;;;5056719;28;20205;-63
2023/09/09 12:07:22;;;;;;;6.50;5.93;;;;;;;;;;5056858;28;20577;-63
2023/09/09 12:09:50;;;;;;;6.43;5.93;;;;;;;;;;5057282;28;20614;-63
2023/09/09 12:12:19;;;;;;;6.78;6.28;;;;;;;;;;5055928;28;20596;-63
2023/09/09 12:14:47;;;;;;;6.32;5.82;;;;;;;;;;5056539;28;20303;-63
2023/09/09 12:17:15;;;;;;;6.60;6.03;;;;;;;;;;5057379;28;20239;-63
2023/09/09 12:19:42;;;;;;;6.63;6.13;;;;;;;;;;5056388;28;20320;-63
2023/09/09 12:22:10;;;;;;;7.00;6.40;;;;;;;;;;5056509;28;20205;-63
2023/09/09 12:24:43;;;;;;;6.82;6.22;;;;;;;;;;5057182;28;20584;-63
2023/09/09 12:27:11;;;;;;;6.72;6.13;;;;;;;;;;5057191;28;20515;-63
2023/09/09 12:29:47;;;;;;;6.70;6.15;;;;;;;;;;5056174;28;20208;-63
2023/09/09 12:32:14;;;;;;;6.40;5.90;;;;;;;;;;5056101;28;20201;-63
2023/09/09 12:34:44;;;;;;;6.18;5.68;;;;;;;;;;5055576;28;20291;-63
2023/09/09 12:37:12;;;;;;;6.63;6.13;;;;;;;;;;5056725;28;20239;-63
2023/09/09 12:39:40;;;;;;;6.00;5.55;;;;;;;;;;5056928;28;20464;-63
2023/09/09 12:42:08;;;;;;;6.57;6.07;;;;;;;;;;5057171;28;20240;-63
2023/09/09 12:44:48;;;;;;;6.30;5.80;;;;;;;;;;5056264;28;20205;-63
2023/09/09 12:47:22;;;;;;;6.43;5.93;;;;;;;;;;5056030;28;20292;-63
2023/09/09 12:49:49;;;;;;;6.32;5.72;;;;;;;;;;5055383;28;20299;-63
2023/09/09 12:52:17;;;;;;;6.47;5.97;;;;;;;;;;5056690;28;20671;-63
2023/09/09 12:54:45;;;;;;;6.40;5.90;;;;;;;;;;5056292;28;20197;-63
2023/09/09 12:57:12;;;;;;;6.25;5.75;;;;;;;;;;5055664;28;20241;-63
2023/09/09 12:59:40;;;;;;;5.97;5.47;;;;;;;;;;5055348;28;20264;-63
2023/09/09 13:02:07;;;;;;;6.20;5.70;;;;;;;;;;5056122;28;20241;-63
2023/09/09 13:04:36;;;;;;;6.30;5.80;;;;;;;;;;5055573;28;20212;-63
2023/09/09 13:07:04;;;;;;;6.03;5.53;;;;;;;;;;5055118;28;20303;-63
2023/09/09 13:09:31;;;;;;;6.25;5.75;;;;;;;;;;5055545;28;20594;-63
2023/09/09 13:11:59;;;;;;;5.68;5.18;;;;;;;;;;5055901;28;20244;-63
2023/09/09 13:14:26;;;;;;;5.78;5.28;;;;;;;;;;5055606;28;20291;-63
2023/09/09 13:16:54;;;;;;;6.00;5.50;;;;;;;;;;5055415;28;20204;-63
2023/09/09 13:19:21;;;;;;;5.45;5.05;;;;;;;;;;5055847;28;20291;-63
2023/09/09 13:21:50;;;;;;;5.50;5.10;;;;;;;;;;5055518;28;20240;-63
2023/09/09 13:24:18;;;;;;;5.88;5.38;;;;;;;;;;5055768;28;20205;-63
2023/09/09 13:26:45;;;;;;;5.60;5.13;;;;;;;;;;5054678;28;20770;-63
2023/09/09 13:29:12;;;;;;;5.53;5.05;;;;;;;;;;5054680;28;20297;-63
2023/09/09 13:31:40;;;;;;;5.75;5.35;;;;;;;;;;5056001;28;20209;-63
2023/09/09 13:34:07;;;;;;;5.55;5.15;;;;;;;;;;5054602;28;20740;-63
2023/09/09 13:36:36;;;;;;;5.38;4.95;;;;;;;;;;5055072;28;20315;-63
2023/09/09 13:39:05;;;;;;;5.45;5.05;;;;;;;;;;5055117;28;20565;-63
2023/09/09 13:41:32;;;;;;;5.38;4.97;;;;;;;;;;5054263;28;20613;-63
2023/09/09 13:44:00;;;;;;;5.10;4.70;;;;;;;;;;5054825;28;20270;-63
2023/09/09 13:46:27;;;;;;;5.28;4.88;;;;;;;;;;5054101;28;20265;-63
2023/09/09 13:48:55;;;;;;;5.47;4.97;;;;;;;;;;5054575;28;20193;-63
2023/09/09 13:51:22;;;;;;;5.50;5.10;;;;;;;;;;5054191;28;20236;-63
2023/09/09 13:53:50;;;;;;;5.80;5.30;;;;;;;;;;5054106;28;20558;-63
2023/09/09 13:56:19;;;;;;;5.68;5.18;;;;;;;;;;5053644;28;20201;-63
2023/09/09 13:58:46;;;;;;;5.82;5.35;;;;;;;;;;5053856;28;20605;-63
2023/09/09 14:01:14;;;;;;;5.70;5.30;;;;;;;;;;5053974;28;20585;-63
2023/09/09 14:03:41;;;;;;;5.70;5.20;;;;;;;;;;5053745;28;20270;-63
2023/09/09 14:06:09;;;;;;;5.57;5.18;;;;;;;;;;5055046;28;20205;-63
2023/09/09 14:08:36;;;;;;;5.80;5.30;;;;;;;;;;5054272;28;20200;-63
2023/09/09 14:11:04;;;;;;;5.50;5.00;;;;;;;;;;5054547;28;20616;-63
2023/09/09 14:13:33;;;;;;;5.88;5.38;;;;;;;;;;5054772;28;20200;-63
2023/09/09 14:16:00;;;;;;;5.60;5.20;;;;;;;;;;5053611;28;20619;-63
2023/09/09 14:18:28;;;;;;;5.53;5.13;;;;;;;;;;5056673;28;20315;-63
2023/09/09 14:20:55;;;;;;;5.78;5.28;;;;;;;;;;5058666;28;20642;-63
2023/09/09 14:23:23;;;;;;;5.55;5.13;;;;;;;;;;5059013;28;20287;-63
2023/09/09 14:25:51;;;;;;;5.43;5.03;;;;;;;;;;5058293;28;20243;-63
2023/09/09 14:28:18;;;;;;;5.80;5.40;;;;;;;;;;5058492;28;20236;-63
2023/09/09 14:30:47;;;;;;;5.82;5.32;;;;;;;;;;5058509;28;20208;-63
2023/09/09 14:33:15;;;;;;;5.90;5.40;;;;;;;;;;5058414;28;20270;-63
2023/09/09 14:35:42;;;;;;;5.90;5.40;;;;;;;;;;5057377;28;20291;-63
2023/09/09 14:38:10;;;;;;;5.90;5.40;;;;;;;;;;5058509;28;20303;-63
2023/09/09 14:40:37;;;;;;;5.85;5.45;;;;;;;;;;5058915;28;20665;-63
2023/09/09 14:43:05;;;;;;;5.90;5.40;;;;;;;;;;5057571;28;20650;-63
2023/09/09 14:45:32;;;;;;;5.60;5.20;;;;;;;;;;5058563;28;20754;-63
2023/09/09 14:48:01;;;;;;;6.10;5.60;;;;;;;;;;5059084;28;20296;-63
2023/09/09 14:50:29;;;;;;;5.88;5.38;;;;;;;;;;5057582;28;20296;-63